sensor_id;sensor_type;location;lat;lon;timestamp;temperature;humidity
52125;DHT22;38119;52.710;6.398;2023-04-30T00:00:50;10.30;99.90
52125;DHT22;38119;52.710;6.398;2023-04-30T00:03:16;10.30;99.90
52125;DHT22;38119;52.710;6.398;2023-04-30T00:05:41;10.20;99.90
52125;DHT22;38119;52.710;6.398;2023-04-30T00:08:07;10.20;99.90
52125;DHT22;38119;52.710;6.398;2023-04-30T00:10:33;10.10;99.90
52125;DHT22;38119;52.710;6.398;2023-04-30T00:12:58;10.10;99.90
52125;DHT22;38119;52.710;6.398;2023-04-30T00:15:24;10.10;99.90
52125;DHT22;38119;52.710;6.398;2023-04-30T00:17:49;10.00;99.90
52125;DHT22;38119;52.710;6.398;2023-04-30T00:20:15;10.00;99.90
52125;DHT22;38119;52.710;6.398;2023-04-30T00:22:40;10.00;99.90
52125;DHT22;38119;52.710;6.398;2023-04-30T00:25:06;9.90;99.90
52125;DHT22;38119;52.710;6.398;2023-04-30T00:27:32;9.90;99.90
52125;DHT22;38119;52.710;6.398;2023-04-30T00:29:57;9.80;99.90
52125;DHT22;38119;52.710;6.398;2023-04-30T00:32:23;9.70;99.90
52125;DHT22;38119;52.710;6.398;2023-04-30T00:34:48;9.70;99.90
52125;DHT22;38119;52.710;6.398;2023-04-30T00:37:14;9.60;99.90
52125;DHT22;38119;52.710;6.398;2023-04-30T00:39:40;9.50;99.90
52125;DHT22;38119;52.710;6.398;2023-04-30T00:42:05;9.40;99.90
52125;DHT22;38119;52.710;6.398;2023-04-30T00:44:31;9.40;99.90
52125;DHT22;38119;52.710;6.398;2023-04-30T00:46:56;9.30;99.90
52125;DHT22;38119;52.710;6.398;2023-04-30T00:49:22;9.20;99.90
52125;DHT22;38119;52.710;6.398;2023-04-30T00:51:48;9.20;99.90
52125;DHT22;38119;52.710;6.398;2023-04-30T00:54:15;9.20;99.90
52125;DHT22;38119;52.710;6.398;2023-04-30T00:56:41;9.10;99.90
52125;DHT22;38119;52.710;6.398;2023-04-30T00:59:07;9.10;99.90
52125;DHT22;38119;52.710;6.398;2023-04-30T01:01:33;9.10;99.90
52125;DHT22;38119;52.710;6.398;2023-04-30T01:03:59;9.10;99.90
52125;DHT22;38119;52.710;6.398;2023-04-30T01:06:25;9.00;99.90
52125;DHT22;38119;52.710;6.398;2023-04-30T01:08:52;9.00;99.90
52125;DHT22;38119;52.710;6.398;2023-04-30T01:14:20;8.90;99.90
52125;DHT22;38119;52.710;6.398;2023-04-30T01:17:08;8.90;99.90
52125;DHT22;38119;52.710;6.398;2023-04-30T01:19:42;8.90;99.90
52125;DHT22;38119;52.710;6.398;2023-04-30T01:22:34;8.80;99.90
52125;DHT22;38119;52.710;6.398;2023-04-30T01:28:02;8.70;99.90
52125;DHT22;38119;52.710;6.398;2023-04-30T01:30:30;8.70;99.90
52125;DHT22;38119;52.710;6.398;2023-04-30T01:32:56;8.60;99.90
52125;DHT22;38119;52.710;6.398;2023-04-30T01:41:13;8.50;99.90
52125;DHT22;38119;52.710;6.398;2023-04-30T01:44:05;8.50;99.90
52125;DHT22;38119;52.710;6.398;2023-04-30T01:46:35;8.40;99.90
52125;DHT22;38119;52.710;6.398;2023-04-30T01:49:26;8.40;99.90
52125;DHT22;38119;52.710;6.398;2023-04-30T01:52:02;8.30;99.90
52125;DHT22;38119;52.710;6.398;2023-04-30T01:54:44;8.30;99.90
52125;DHT22;38119;52.710;6.398;2023-04-30T01:57:39;8.30;99.90
52125;DHT22;38119;52.710;6.398;2023-04-30T02:00:07;8.30;99.90
52125;DHT22;38119;52.710;6.398;2023-04-30T02:02:36;8.30;99.90
52125;DHT22;38119;52.710;6.398;2023-04-30T02:05:02;8.20;99.90
52125;DHT22;38119;52.710;6.398;2023-04-30T02:10:03;8.20;99.90
52125;DHT22;38119;52.710;6.398;2023-04-30T02:12:29;8.10;99.90
52125;DHT22;38119;52.710;6.398;2023-04-30T02:14:54;8.10;99.90
52125;DHT22;38119;52.710;6.398;2023-04-30T02:17:20;8.00;99.90
52125;DHT22;38119;52.710;6.398;2023-04-30T02:19:46;8.00;99.90
52125;DHT22;38119;52.710;6.398;2023-04-30T02:22:11;8.00;99.90
52125;DHT22;38119;52.710;6.398;2023-04-30T02:24:37;8.00;99.90
52125;DHT22;38119;52.710;6.398;2023-04-30T02:27:02;7.90;99.90
52125;DHT22;38119;52.710;6.398;2023-04-30T02:29:28;7.90;99.90
52125;DHT22;38119;52.710;6.398;2023-04-30T02:31:57;7.90;99.90
52125;DHT22;38119;52.710;6.398;2023-04-30T02:34:23;7.80;99.90
52125;DHT22;38119;52.710;6.398;2023-04-30T02:36:48;7.80;99.90
52125;DHT22;38119;52.710;6.398;2023-04-30T02:39:14;7.70;99.90
52125;DHT22;38119;52.710;6.398;2023-04-30T02:41:39;7.70;99.90
52125;DHT22;38119;52.710;6.398;2023-04-30T02:44:05;7.70;99.90
52125;DHT22;38119;52.710;6.398;2023-04-30T02:46:30;7.60;99.90
52125;DHT22;38119;52.710;6.398;2023-04-30T02:48:56;7.60;99.90
52125;DHT22;38119;52.710;6.398;2023-04-30T02:51:22;7.50;99.90
52125;DHT22;38119;52.710;6.398;2023-04-30T02:53:47;7.50;99.90
52125;DHT22;38119;52.710;6.398;2023-04-30T02:56:13;7.50;99.90
52125;DHT22;38119;52.710;6.398;2023-04-30T02:58:38;7.50;99.90
52125;DHT22;38119;52.710;6.398;2023-04-30T03:01:04;7.50;99.90
52125;DHT22;38119;52.710;6.398;2023-04-30T03:03:30;7.50;99.90
52125;DHT22;38119;52.710;6.398;2023-04-30T03:05:56;7.50;99.90
52125;DHT22;38119;52.710;6.398;2023-04-30T03:08:24;7.50;99.90
52125;DHT22;38119;52.710;6.398;2023-04-30T03:10:50;7.40;99.90
52125;DHT22;38119;52.710;6.398;2023-04-30T03:13:15;7.40;99.90
52125;DHT22;38119;52.710;6.398;2023-04-30T03:15:41;7.40;99.90
52125;DHT22;38119;52.710;6.398;2023-04-30T03:18:06;7.30;99.90
52125;DHT22;38119;52.710;6.398;2023-04-30T03:20:32;7.20;99.90
52125;DHT22;38119;52.710;6.398;2023-04-30T03:22:57;7.20;99.90
52125;DHT22;38119;52.710;6.398;2023-04-30T03:25:23;7.10;99.90
52125;DHT22;38119;52.710;6.398;2023-04-30T03:27:48;7.10;99.90
52125;DHT22;38119;52.710;6.398;2023-04-30T03:30:14;7.10;99.90
52125;DHT22;38119;52.710;6.398;2023-04-30T03:32:40;7.10;99.90
52125;DHT22;38119;52.710;6.398;2023-04-30T03:35:06;7.00;99.90
52125;DHT22;38119;52.710;6.398;2023-04-30T03:37:32;7.00;99.90
52125;DHT22;38119;52.710;6.398;2023-04-30T03:39:58;7.00;99.90
52125;DHT22;38119;52.710;6.398;2023-04-30T03:42:23;7.00;99.90
52125;DHT22;38119;52.710;6.398;2023-04-30T03:44:49;7.00;99.90
52125;DHT22;38119;52.710;6.398;2023-04-30T03:47:14;7.00;99.90
52125;DHT22;38119;52.710;6.398;2023-04-30T03:49:40;6.90;99.90
52125;DHT22;38119;52.710;6.398;2023-04-30T03:52:06;6.90;99.90
52125;DHT22;38119;52.710;6.398;2023-04-30T03:54:32;6.90;99.90
52125;DHT22;38119;52.710;6.398;2023-04-30T03:56:58;6.90;99.90
52125;DHT22;38119;52.710;6.398;2023-04-30T03:59:24;6.90;99.90
52125;DHT22;38119;52.710;6.398;2023-04-30T04:01:50;6.90;99.90
52125;DHT22;38119;52.710;6.398;2023-04-30T04:04:16;6.90;99.90
52125;DHT22;38119;52.710;6.398;2023-04-30T04:06:42;6.90;99.90
52125;DHT22;38119;52.710;6.398;2023-04-30T04:09:07;6.90;99.90
52125;DHT22;38119;52.710;6.398;2023-04-30T04:11:33;6.90;99.90
52125;DHT22;38119;52.710;6.398;2023-04-30T04:13:59;6.90;99.90
52125;DHT22;38119;52.710;6.398;2023-04-30T04:16:25;6.90;99.90
52125;DHT22;38119;52.710;6.398;2023-04-30T04:18:51;6.80;99.90
52125;DHT22;38119;52.710;6.398;2023-04-30T04:21:17;6.90;99.90
52125;DHT22;38119;52.710;6.398;2023-04-30T04:23:43;6.90;99.90
52125;DHT22;38119;52.710;6.398;2023-04-30T04:26:08;6.90;99.90
52125;DHT22;38119;52.710;6.398;2023-04-30T04:28:35;6.90;99.90
52125;DHT22;38119;52.710;6.398;2023-04-30T04:31:01;6.80;99.90
52125;DHT22;38119;52.710;6.398;2023-04-30T04:33:27;6.80;99.90
52125;DHT22;38119;52.710;6.398;2023-04-30T04:35:53;6.80;99.90
52125;DHT22;38119;52.710;6.398;2023-04-30T04:38:19;6.70;99.90
52125;DHT22;38119;52.710;6.398;2023-04-30T04:40:54;6.80;99.90
52125;DHT22;38119;52.710;6.398;2023-04-30T04:43:21;6.80;99.90
52125;DHT22;38119;52.710;6.398;2023-04-30T04:45:46;6.80;99.90
52125;DHT22;38119;52.710;6.398;2023-04-30T04:48:12;6.80;99.90
52125;DHT22;38119;52.710;6.398;2023-04-30T04:50:38;6.80;99.90
52125;DHT22;38119;52.710;6.398;2023-04-30T04:53:04;6.80;99.90
52125;DHT22;38119;52.710;6.398;2023-04-30T04:55:29;6.80;99.90
52125;DHT22;38119;52.710;6.398;2023-04-30T04:57:55;6.80;99.90
52125;DHT22;38119;52.710;6.398;2023-04-30T05:00:21;6.90;99.90
52125;DHT22;38119;52.710;6.398;2023-04-30T05:02:48;6.90;99.90
52125;DHT22;38119;52.710;6.398;2023-04-30T05:05:14;6.90;99.90
52125;DHT22;38119;52.710;6.398;2023-04-30T05:07:39;6.90;99.90
52125;DHT22;38119;52.710;6.398;2023-04-30T05:10:06;6.90;99.90
52125;DHT22;38119;52.710;6.398;2023-04-30T05:12:32;7.00;99.90
52125;DHT22;38119;52.710;6.398;2023-04-30T05:14:58;7.00;99.90
52125;DHT22;38119;52.710;6.398;2023-04-30T05:17:23;7.00;99.90
52125;DHT22;38119;52.710;6.398;2023-04-30T05:19:49;7.00;99.90
52125;DHT22;38119;52.710;6.398;2023-04-30T05:22:15;7.00;99.90
52125;DHT22;38119;52.710;6.398;2023-04-30T05:24:41;7.00;99.90
52125;DHT22;38119;52.710;6.398;2023-04-30T05:27:07;7.10;99.90
52125;DHT22;38119;52.710;6.398;2023-04-30T05:29:33;7.10;99.90
52125;DHT22;38119;52.710;6.398;2023-04-30T05:31:59;7.10;99.90
52125;DHT22;38119;52.710;6.398;2023-04-30T05:34:25;7.10;99.90
52125;DHT22;38119;52.710;6.398;2023-04-30T05:36:51;7.10;99.90
52125;DHT22;38119;52.710;6.398;2023-04-30T05:39:16;7.10;99.90
52125;DHT22;38119;52.710;6.398;2023-04-30T05:41:42;7.20;99.90
52125;DHT22;38119;52.710;6.398;2023-04-30T05:44:07;7.20;99.90
52125;DHT22;38119;52.710;6.398;2023-04-30T05:46:33;7.20;99.90
52125;DHT22;38119;52.710;6.398;2023-04-30T05:49:00;7.20;99.90
52125;DHT22;38119;52.710;6.398;2023-04-30T05:51:26;7.20;99.90
52125;DHT22;38119;52.710;6.398;2023-04-30T05:53:52;7.20;99.90
52125;DHT22;38119;52.710;6.398;2023-04-30T05:56:18;7.20;99.90
52125;DHT22;38119;52.710;6.398;2023-04-30T05:58:43;7.20;99.90
52125;DHT22;38119;52.710;6.398;2023-04-30T06:01:09;7.20;99.90
52125;DHT22;38119;52.710;6.398;2023-04-30T06:03:35;7.20;99.90
52125;DHT22;38119;52.710;6.398;2023-04-30T06:06:02;7.20;99.90
52125;DHT22;38119;52.710;6.398;2023-04-30T06:08:27;7.20;99.90
52125;DHT22;38119;52.710;6.398;2023-04-30T06:10:54;7.20;99.90
52125;DHT22;38119;52.710;6.398;2023-04-30T06:13:20;7.30;99.90
52125;DHT22;38119;52.710;6.398;2023-04-30T06:15:45;7.30;99.90
52125;DHT22;38119;52.710;6.398;2023-04-30T06:18:15;7.40;99.90
52125;DHT22;38119;52.710;6.398;2023-04-30T06:20:40;7.40;99.90
52125;DHT22;38119;52.710;6.398;2023-04-30T06:23:06;7.50;99.90
52125;DHT22;38119;52.710;6.398;2023-04-30T06:25:31;7.50;99.90
52125;DHT22;38119;52.710;6.398;2023-04-30T06:27:57;7.60;99.90
52125;DHT22;38119;52.710;6.398;2023-04-30T06:30:22;7.60;99.90
52125;DHT22;38119;52.710;6.398;2023-04-30T06:32:48;7.70;99.90
52125;DHT22;38119;52.710;6.398;2023-04-30T06:35:14;7.70;99.90
52125;DHT22;38119;52.710;6.398;2023-04-30T06:37:39;7.80;99.90
52125;DHT22;38119;52.710;6.398;2023-04-30T06:40:06;7.80;99.90
52125;DHT22;38119;52.710;6.398;2023-04-30T06:42:32;7.80;99.90
52125;DHT22;38119;52.710;6.398;2023-04-30T06:45:01;7.90;99.90
52125;DHT22;38119;52.710;6.398;2023-04-30T06:47:28;8.00;99.90
52125;DHT22;38119;52.710;6.398;2023-04-30T06:49:59;8.00;99.90
52125;DHT22;38119;52.710;6.398;2023-04-30T06:52:25;8.00;99.90
52125;DHT22;38119;52.710;6.398;2023-04-30T06:54:51;8.10;99.90
52125;DHT22;38119;52.710;6.398;2023-04-30T06:57:16;8.20;99.90
52125;DHT22;38119;52.710;6.398;2023-04-30T06:59:42;8.20;99.90
52125;DHT22;38119;52.710;6.398;2023-04-30T07:02:08;8.20;99.90
52125;DHT22;38119;52.710;6.398;2023-04-30T07:04:34;8.20;99.90
52125;DHT22;38119;52.710;6.398;2023-04-30T07:06:59;8.30;99.90
52125;DHT22;38119;52.710;6.398;2023-04-30T07:09:27;8.30;99.90
52125;DHT22;38119;52.710;6.398;2023-04-30T07:11:53;8.40;99.90
52125;DHT22;38119;52.710;6.398;2023-04-30T07:14:19;8.40;99.90
52125;DHT22;38119;52.710;6.398;2023-04-30T07:16:45;8.40;99.90
52125;DHT22;38119;52.710;6.398;2023-04-30T07:19:11;8.50;99.90
52125;DHT22;38119;52.710;6.398;2023-04-30T07:21:36;8.50;99.90
52125;DHT22;38119;52.710;6.398;2023-04-30T07:24:02;8.50;99.90
52125;DHT22;38119;52.710;6.398;2023-04-30T07:26:28;8.60;99.90
52125;DHT22;38119;52.710;6.398;2023-04-30T07:28:54;8.60;99.90
52125;DHT22;38119;52.710;6.398;2023-04-30T07:31:19;8.60;99.90
52125;DHT22;38119;52.710;6.398;2023-04-30T07:33:45;8.70;99.90
52125;DHT22;38119;52.710;6.398;2023-04-30T07:36:11;8.70;99.90
52125;DHT22;38119;52.710;6.398;2023-04-30T07:38:36;8.80;99.90
52125;DHT22;38119;52.710;6.398;2023-04-30T07:41:02;8.80;99.90
52125;DHT22;38119;52.710;6.398;2023-04-30T07:43:27;8.80;99.90
52125;DHT22;38119;52.710;6.398;2023-04-30T07:45:53;8.90;99.90
52125;DHT22;38119;52.710;6.398;2023-04-30T07:48:19;8.90;99.90
52125;DHT22;38119;52.710;6.398;2023-04-30T07:50:47;9.00;99.90
52125;DHT22;38119;52.710;6.398;2023-04-30T07:53:13;9.00;99.90
52125;DHT22;38119;52.710;6.398;2023-04-30T07:55:38;9.10;99.90
52125;DHT22;38119;52.710;6.398;2023-04-30T07:58:04;9.20;99.90
52125;DHT22;38119;52.710;6.398;2023-04-30T08:00:30;9.30;99.90
52125;DHT22;38119;52.710;6.398;2023-04-30T08:02:56;9.30;99.90
52125;DHT22;38119;52.710;6.398;2023-04-30T08:05:22;9.40;99.90
52125;DHT22;38119;52.710;6.398;2023-04-30T08:07:47;9.50;99.90
52125;DHT22;38119;52.710;6.398;2023-04-30T08:10:13;9.50;99.90
52125;DHT22;38119;52.710;6.398;2023-04-30T08:12:39;9.60;99.90
52125;DHT22;38119;52.710;6.398;2023-04-30T08:15:05;9.70;99.90
52125;DHT22;38119;52.710;6.398;2023-04-30T08:17:33;9.80;99.90
52125;DHT22;38119;52.710;6.398;2023-04-30T08:19:59;9.80;99.90
52125;DHT22;38119;52.710;6.398;2023-04-30T08:22:25;9.90;99.90
52125;DHT22;38119;52.710;6.398;2023-04-30T08:24:51;10.00;99.90
52125;DHT22;38119;52.710;6.398;2023-04-30T08:27:16;10.00;99.90
52125;DHT22;38119;52.710;6.398;2023-04-30T08:29:42;10.20;99.90
52125;DHT22;38119;52.710;6.398;2023-04-30T08:32:07;10.40;99.90
52125;DHT22;38119;52.710;6.398;2023-04-30T08:34:33;10.50;99.90
52125;DHT22;38119;52.710;6.398;2023-04-30T08:36:59;10.80;99.90
52125;DHT22;38119;52.710;6.398;2023-04-30T08:39:26;11.00;99.90
52125;DHT22;38119;52.710;6.398;2023-04-30T08:41:54;11.30;99.90
52125;DHT22;38119;52.710;6.398;2023-04-30T08:44:26;11.60;99.90
52125;DHT22;38119;52.710;6.398;2023-04-30T08:46:56;11.90;99.90
52125;DHT22;38119;52.710;6.398;2023-04-30T08:49:24;12.20;99.90
52125;DHT22;38119;52.710;6.398;2023-04-30T08:51:50;12.50;99.90
52125;DHT22;38119;52.710;6.398;2023-04-30T08:54:17;12.70;99.90
52125;DHT22;38119;52.710;6.398;2023-04-30T08:56:46;12.90;99.90
52125;DHT22;38119;52.710;6.398;2023-04-30T08:59:12;13.10;99.90
52125;DHT22;38119;52.710;6.398;2023-04-30T09:01:38;13.20;99.90
52125;DHT22;38119;52.710;6.398;2023-04-30T09:04:05;13.30;99.90
52125;DHT22;38119;52.710;6.398;2023-04-30T09:06:30;13.40;99.90
52125;DHT22;38119;52.710;6.398;2023-04-30T09:08:56;13.70;99.90
52125;DHT22;38119;52.710;6.398;2023-04-30T09:11:32;13.90;99.90
52125;DHT22;38119;52.710;6.398;2023-04-30T09:13:58;14.20;99.90
52125;DHT22;38119;52.710;6.398;2023-04-30T09:16:26;14.20;99.90
52125;DHT22;38119;52.710;6.398;2023-04-30T09:18:52;14.30;99.90
52125;DHT22;38119;52.710;6.398;2023-04-30T09:21:31;14.50;99.90
52125;DHT22;38119;52.710;6.398;2023-04-30T09:24:04;14.60;99.90
52125;DHT22;38119;52.710;6.398;2023-04-30T09:26:35;14.70;99.90
52125;DHT22;38119;52.710;6.398;2023-04-30T09:29:01;14.90;99.90
52125;DHT22;38119;52.710;6.398;2023-04-30T09:31:32;15.10;99.90
52125;DHT22;38119;52.710;6.398;2023-04-30T09:33:58;15.20;99.90
52125;DHT22;38119;52.710;6.398;2023-04-30T09:36:24;15.40;99.90
52125;DHT22;38119;52.710;6.398;2023-04-30T09:38:50;15.70;99.90
52125;DHT22;38119;52.710;6.398;2023-04-30T09:41:27;15.90;99.90
52125;DHT22;38119;52.710;6.398;2023-04-30T09:43:56;16.10;99.90
52125;DHT22;38119;52.710;6.398;2023-04-30T09:46:30;16.20;99.90
52125;DHT22;38119;52.710;6.398;2023-04-30T09:48:58;16.30;99.90
52125;DHT22;38119;52.710;6.398;2023-04-30T09:51:24;16.30;99.90
52125;DHT22;38119;52.710;6.398;2023-04-30T09:53:52;16.40;99.90
52125;DHT22;38119;52.710;6.398;2023-04-30T09:56:22;16.60;99.90
52125;DHT22;38119;52.710;6.398;2023-04-30T09:58:52;16.70;99.90
52125;DHT22;38119;52.710;6.398;2023-04-30T10:01:24;16.80;99.90
52125;DHT22;38119;52.710;6.398;2023-04-30T10:03:51;16.90;99.90
52125;DHT22;38119;52.710;6.398;2023-04-30T10:06:18;17.10;99.90
52125;DHT22;38119;52.710;6.398;2023-04-30T10:08:52;17.20;99.90
52125;DHT22;38119;52.710;6.398;2023-04-30T10:11:19;17.30;99.90
52125;DHT22;38119;52.710;6.398;2023-04-30T10:13:51;17.50;99.90
52125;DHT22;38119;52.710;6.398;2023-04-30T10:19:24;17.70;99.90
52125;DHT22;38119;52.710;6.398;2023-04-30T10:21:50;17.80;99.90
52125;DHT22;38119;52.710;6.398;2023-04-30T10:24:18;17.80;99.90
52125;DHT22;38119;52.710;6.398;2023-04-30T10:26:44;17.90;99.90
52125;DHT22;38119;52.710;6.398;2023-04-30T10:29:12;18.00;99.90
52125;DHT22;38119;52.710;6.398;2023-04-30T10:31:39;18.20;99.90
52125;DHT22;38119;52.710;6.398;2023-04-30T10:34:28;18.30;99.90
52125;DHT22;38119;52.710;6.398;2023-04-30T10:36:59;18.50;98.60
52125;DHT22;38119;52.710;6.398;2023-04-30T10:39:28;18.50;99.20
52125;DHT22;38119;52.710;6.398;2023-04-30T10:42:03;18.50;99.10
52125;DHT22;38119;52.710;6.398;2023-04-30T10:44:33;18.60;98.20
52125;DHT22;38119;52.710;6.398;2023-04-30T10:47:03;18.70;98.50
52125;DHT22;38119;52.710;6.398;2023-04-30T10:49:29;18.70;98.50
52125;DHT22;38119;52.710;6.398;2023-04-30T10:51:58;18.70;98.30
52125;DHT22;38119;52.710;6.398;2023-04-30T10:54:35;18.90;98.30
52125;DHT22;38119;52.710;6.398;2023-04-30T10:57:21;19.00;97.50
52125;DHT22;38119;52.710;6.398;2023-04-30T11:02:15;18.80;97.30
52125;DHT22;38119;52.710;6.398;2023-04-30T11:05:16;19.00;97.90
52125;DHT22;38119;52.710;6.398;2023-04-30T11:07:49;19.00;97.00
52125;DHT22;38119;52.710;6.398;2023-04-30T11:10:16;19.10;97.60
52125;DHT22;38119;52.710;6.398;2023-04-30T11:12:49;19.10;97.70
52125;DHT22;38119;52.710;6.398;2023-04-30T11:15:17;19.20;97.40
52125;DHT22;38119;52.710;6.398;2023-04-30T11:17:45;19.30;97.60
52125;DHT22;38119;52.710;6.398;2023-04-30T11:20:18;19.30;97.20
52125;DHT22;38119;52.710;6.398;2023-04-30T11:22:44;19.40;96.90
52125;DHT22;38119;52.710;6.398;2023-04-30T11:25:11;19.60;98.90
52125;DHT22;38119;52.710;6.398;2023-04-30T11:27:40;19.70;98.00
52125;DHT22;38119;52.710;6.398;2023-04-30T11:30:17;19.80;96.70
52125;DHT22;38119;52.710;6.398;2023-04-30T11:32:45;19.90;95.50
52125;DHT22;38119;52.710;6.398;2023-04-30T11:35:12;19.90;96.00
52125;DHT22;38119;52.710;6.398;2023-04-30T11:37:42;19.80;96.30
52125;DHT22;38119;52.710;6.398;2023-04-30T11:40:11;19.80;96.10
52125;DHT22;38119;52.710;6.398;2023-04-30T11:42:38;19.90;96.60
52125;DHT22;38119;52.710;6.398;2023-04-30T11:45:09;19.80;96.10
52125;DHT22;38119;52.710;6.398;2023-04-30T11:50:06;19.70;95.60
52125;DHT22;38119;52.710;6.398;2023-04-30T11:52:31;19.80;96.20
52125;DHT22;38119;52.710;6.398;2023-04-30T11:54:57;19.80;96.00
52125;DHT22;38119;52.710;6.398;2023-04-30T11:57:24;19.90;95.80
52125;DHT22;38119;52.710;6.398;2023-04-30T11:59:50;20.00;95.90
52125;DHT22;38119;52.710;6.398;2023-04-30T12:02:15;20.10;95.80
52125;DHT22;38119;52.710;6.398;2023-04-30T12:04:44;20.10;95.60
52125;DHT22;38119;52.710;6.398;2023-04-30T12:07:11;20.00;95.60
52125;DHT22;38119;52.710;6.398;2023-04-30T12:09:53;20.20;96.00
52125;DHT22;38119;52.710;6.398;2023-04-30T12:12:26;20.40;95.10
52125;DHT22;38119;52.710;6.398;2023-04-30T12:14:52;20.60;93.90
52125;DHT22;38119;52.710;6.398;2023-04-30T12:17:33;20.60;94.80
52125;DHT22;38119;52.710;6.398;2023-04-30T12:20:00;20.60;94.10
52125;DHT22;38119;52.710;6.398;2023-04-30T12:22:26;20.70;94.70
52125;DHT22;38119;52.710;6.398;2023-04-30T12:24:52;20.80;94.60
52125;DHT22;38119;52.710;6.398;2023-04-30T12:27:18;20.80;94.20
52125;DHT22;38119;52.710;6.398;2023-04-30T12:29:44;20.80;93.80
52125;DHT22;38119;52.710;6.398;2023-04-30T12:32:11;20.90;93.70
52125;DHT22;38119;52.710;6.398;2023-04-30T12:34:40;20.90;94.10
52125;DHT22;38119;52.710;6.398;2023-04-30T12:37:06;21.00;94.00
52125;DHT22;38119;52.710;6.398;2023-04-30T12:39:32;21.30;93.40
52125;DHT22;38119;52.710;6.398;2023-04-30T12:41:59;21.30;93.20
52125;DHT22;38119;52.710;6.398;2023-04-30T12:44:26;21.40;92.90
52125;DHT22;38119;52.710;6.398;2023-04-30T12:46:56;21.30;92.70
52125;DHT22;38119;52.710;6.398;2023-04-30T12:49:44;21.40;92.50
52125;DHT22;38119;52.710;6.398;2023-04-30T12:52:12;21.40;91.80
52125;DHT22;38119;52.710;6.398;2023-04-30T12:54:38;21.40;92.40
52125;DHT22;38119;52.710;6.398;2023-04-30T12:59:30;21.20;91.30
52125;DHT22;38119;52.710;6.398;2023-04-30T13:02:06;21.00;90.90
52125;DHT22;38119;52.710;6.398;2023-04-30T13:04:33;20.90;91.80
52125;DHT22;38119;52.710;6.398;2023-04-30T13:06:58;20.80;91.90
52125;DHT22;38119;52.710;6.398;2023-04-30T13:09:24;20.90;92.30
52125;DHT22;38119;52.710;6.398;2023-04-30T13:11:50;20.90;92.50
52125;DHT22;38119;52.710;6.398;2023-04-30T13:14:16;20.90;92.30
52125;DHT22;38119;52.710;6.398;2023-04-30T13:16:42;20.90;91.90
52125;DHT22;38119;52.710;6.398;2023-04-30T13:19:08;20.80;91.40
52125;DHT22;38119;52.710;6.398;2023-04-30T13:21:34;20.80;91.80
52125;DHT22;38119;52.710;6.398;2023-04-30T13:23:59;20.80;92.00
52125;DHT22;38119;52.710;6.398;2023-04-30T13:26:26;20.90;91.90
52125;DHT22;38119;52.710;6.398;2023-04-30T13:28:52;21.00;92.00
52125;DHT22;38119;52.710;6.398;2023-04-30T13:31:17;21.00;91.00
52125;DHT22;38119;52.710;6.398;2023-04-30T13:33:43;20.90;91.30
52125;DHT22;38119;52.710;6.398;2023-04-30T13:36:09;20.90;91.50
52125;DHT22;38119;52.710;6.398;2023-04-30T13:38:34;20.70;91.10
52125;DHT22;38119;52.710;6.398;2023-04-30T13:41:00;20.70;91.70
52125;DHT22;38119;52.710;6.398;2023-04-30T13:43:25;20.80;91.90
52125;DHT22;38119;52.710;6.398;2023-04-30T13:45:51;20.80;91.70
52125;DHT22;38119;52.710;6.398;2023-04-30T13:48:17;20.80;92.10
52125;DHT22;38119;52.710;6.398;2023-04-30T13:50:43;20.90;92.20
52125;DHT22;38119;52.710;6.398;2023-04-30T13:53:08;21.00;91.80
52125;DHT22;38119;52.710;6.398;2023-04-30T13:55:34;20.80;91.80
52125;DHT22;38119;52.710;6.398;2023-04-30T13:58:00;20.80;91.10
52125;DHT22;38119;52.710;6.398;2023-04-30T14:00:25;20.80;91.60
52125;DHT22;38119;52.710;6.398;2023-04-30T14:02:51;20.80;92.10
52125;DHT22;38119;52.710;6.398;2023-04-30T14:05:17;20.90;92.10
52125;DHT22;38119;52.710;6.398;2023-04-30T14:07:43;21.00;91.80
52125;DHT22;38119;52.710;6.398;2023-04-30T14:10:08;21.10;91.90
52125;DHT22;38119;52.710;6.398;2023-04-30T14:12:34;21.10;91.70
52125;DHT22;38119;52.710;6.398;2023-04-30T14:15:00;21.20;91.90
52125;DHT22;38119;52.710;6.398;2023-04-30T14:17:25;21.30;91.60
52125;DHT22;38119;52.710;6.398;2023-04-30T14:19:52;21.30;91.30
52125;DHT22;38119;52.710;6.398;2023-04-30T14:22:17;21.40;91.10
52125;DHT22;38119;52.710;6.398;2023-04-30T14:24:43;21.50;91.20
52125;DHT22;38119;52.710;6.398;2023-04-30T14:27:08;21.60;91.20
52125;DHT22;38119;52.710;6.398;2023-04-30T14:29:34;21.50;90.60
52125;DHT22;38119;52.710;6.398;2023-04-30T14:32:00;21.30;90.30
52125;DHT22;38119;52.710;6.398;2023-04-30T14:34:26;21.10;90.80
52125;DHT22;38119;52.710;6.398;2023-04-30T14:36:52;21.00;91.10
52125;DHT22;38119;52.710;6.398;2023-04-30T14:39:17;20.80;91.40
52125;DHT22;38119;52.710;6.398;2023-04-30T14:41:43;20.80;91.70
52125;DHT22;38119;52.710;6.398;2023-04-30T14:44:09;20.90;91.40
52125;DHT22;38119;52.710;6.398;2023-04-30T14:46:35;20.90;91.50
52125;DHT22;38119;52.710;6.398;2023-04-30T14:49:00;21.00;91.60
52125;DHT22;38119;52.710;6.398;2023-04-30T14:51:26;20.90;90.70
52125;DHT22;38119;52.710;6.398;2023-04-30T14:53:53;20.70;90.50
52125;DHT22;38119;52.710;6.398;2023-04-30T14:56:19;20.60;91.00
52125;DHT22;38119;52.710;6.398;2023-04-30T14:58:45;20.60;91.30
52125;DHT22;38119;52.710;6.398;2023-04-30T15:01:10;20.70;91.60
52125;DHT22;38119;52.710;6.398;2023-04-30T15:03:36;20.60;91.60
52125;DHT22;38119;52.710;6.398;2023-04-30T15:06:02;20.70;91.50
52125;DHT22;38119;52.710;6.398;2023-04-30T15:08:28;20.90;91.70
52125;DHT22;38119;52.710;6.398;2023-04-30T15:10:54;20.80;91.40
52125;DHT22;38119;52.710;6.398;2023-04-30T15:13:20;20.70;90.80
52125;DHT22;38119;52.710;6.398;2023-04-30T15:15:45;20.60;90.20
52125;DHT22;38119;52.710;6.398;2023-04-30T15:18:11;20.50;89.30
52125;DHT22;38119;52.710;6.398;2023-04-30T15:20:38;20.30;89.60
52125;DHT22;38119;52.710;6.398;2023-04-30T15:23:04;20.20;90.00
52125;DHT22;38119;52.710;6.398;2023-04-30T15:25:30;20.10;90.10
52125;DHT22;38119;52.710;6.398;2023-04-30T15:27:56;20.10;90.20
52125;DHT22;38119;52.710;6.398;2023-04-30T15:30:22;20.10;90.50
52125;DHT22;38119;52.710;6.398;2023-04-30T15:32:48;20.00;90.60
52125;DHT22;38119;52.710;6.398;2023-04-30T15:35:14;20.00;90.60
52125;DHT22;38119;52.710;6.398;2023-04-30T15:37:39;20.10;91.10
52125;DHT22;38119;52.710;6.398;2023-04-30T15:40:05;20.20;91.50
52125;DHT22;38119;52.710;6.398;2023-04-30T15:42:32;20.20;91.20
52125;DHT22;38119;52.710;6.398;2023-04-30T15:44:58;20.30;91.30
52125;DHT22;38119;52.710;6.398;2023-04-30T15:47:24;20.30;91.30
52125;DHT22;38119;52.710;6.398;2023-04-30T15:49:49;20.30;91.20
52125;DHT22;38119;52.710;6.398;2023-04-30T15:52:15;20.20;91.30
52125;DHT22;38119;52.710;6.398;2023-04-30T15:54:41;20.30;91.40
52125;DHT22;38119;52.710;6.398;2023-04-30T15:57:06;20.20;90.70
52125;DHT22;38119;52.710;6.398;2023-04-30T15:59:32;20.20;91.00
52125;DHT22;38119;52.710;6.398;2023-04-30T16:01:58;20.10;90.90